createdAt,value
2017-11-09T00:01:08.372Z,100166.53
2017-11-09T00:03:34.651Z,100167.80
2017-11-09T00:06:00.857Z,100172.16
2017-11-09T00:08:27.094Z,100176.89
2017-11-09T00:10:53.369Z,100139.06
2017-11-09T00:13:19.610Z,100173.38
2017-11-09T00:15:45.876Z,100173.38
2017-11-09T00:18:12.192Z,100175.77
2017-11-09T00:20:38.439Z,100174.47
2017-11-09T00:23:04.684Z,100172.13
2017-11-09T00:25:30.953Z,100166.37
2017-11-09T00:27:57.181Z,100166.72
2017-11-09T00:30:23.493Z,100173.02
2017-11-09T00:32:49.722Z,100172.11
2017-11-09T00:35:15.943Z,100182.75
2017-11-09T00:37:42.185Z,100164.03
2017-11-09T00:40:08.455Z,100183.09
2017-11-09T00:42:34.688Z,100180.33
2017-11-09T00:45:00.914Z,100179.28
2017-11-09T00:47:27.209Z,100179.14
2017-11-09T00:49:53.527Z,100184.52
2017-11-09T00:52:19.754Z,100177.53
2017-11-09T00:54:46.020Z,100183.77
2017-11-09T00:57:12.273Z,100187.13
2017-11-09T00:59:38.501Z,100182.71
2017-11-09T01:02:04.768Z,100185.28
2017-11-09T01:04:31.009Z,100184.69
2017-11-09T01:06:57.241Z,100183.27
2017-11-09T01:09:23.528Z,100178.65
2017-11-09T01:11:49.762Z,100182.91
2017-11-09T01:14:16.015Z,100175.29
2017-11-09T01:16:42.295Z,100175.19
2017-11-09T01:19:08.525Z,100172.94
2017-11-09T01:21:34.736Z,100179.05
2017-11-09T01:24:01.029Z,100174.55
2017-11-09T01:26:27.266Z,100167.14
2017-11-09T01:28:53.522Z,100173.81
2017-11-09T01:31:19.794Z,100169.08
2017-11-09T01:33:46.031Z,100175.63
2017-11-09T01:36:12.304Z,100180.72
2017-11-09T01:38:38.571Z,100176.11
2017-11-09T01:41:04.808Z,100180.31
2017-11-09T01:43:31.049Z,100171.97
2017-11-09T01:45:57.333Z,100178.03
2017-11-09T01:48:23.580Z,100171.44
2017-11-09T01:50:49.817Z,100176.80
2017-11-09T01:53:16.072Z,100175.20
2017-11-09T01:55:42.315Z,100179.86
2017-11-09T01:58:08.545Z,100181.88
2017-11-09T02:00:34.808Z,100177.47
2017-11-09T02:03:01.041Z,100174.38
2017-11-09T02:05:27.273Z,100173.77
2017-11-09T02:07:53.544Z,100172.06
2017-11-09T02:10:19.872Z,100176.39
2017-11-09T02:12:46.104Z,100180.89
2017-11-09T02:15:12.373Z,100183.88
2017-11-09T02:17:38.616Z,100177.39
2017-11-09T02:20:04.841Z,100182.84
2017-11-09T02:22:31.080Z,100183.22
2017-11-09T02:24:57.347Z,100185.33
2017-11-09T02:27:23.654Z,100192.74
2017-11-09T02:29:49.894Z,100194.85
2017-11-09T02:32:16.160Z,100191.98
2017-11-09T02:34:42.382Z,100196.11
2017-11-09T02:37:08.607Z,100194.71
2017-11-09T02:39:34.870Z,100192.11
2017-11-09T02:42:01.122Z,100186.04
2017-11-09T02:44:27.359Z,100189.44
2017-11-09T02:46:53.646Z,100193.59
2017-11-09T02:49:19.888Z,100187.45
2017-11-09T02:51:46.139Z,100192.55
2017-11-09T02:54:12.407Z,100193.89
2017-11-09T02:56:38.637Z,100199.28
2017-11-09T02:59:04.871Z,100203.09
2017-11-09T03:01:31.143Z,100206.10
2017-11-09T03:03:57.386Z,100209.32
2017-11-09T03:06:23.809Z,100209.27
2017-11-09T03:08:50.161Z,100211.88
2017-11-09T03:11:16.404Z,100218.30
2017-11-09T03:13:42.651Z,100223.25
2017-11-09T03:16:08.943Z,100225.72
2017-11-09T03:18:35.304Z,100227.05
2017-11-09T03:21:01.531Z,100223.35
2017-11-09T03:23:27.799Z,100227.14
2017-11-09T03:25:54.018Z,100228.42
2017-11-09T03:28:20.247Z,100232.98
2017-11-09T03:30:46.512Z,100233.70
2017-11-09T03:33:12.764Z,100237.17
2017-11-09T03:35:39.010Z,100241.23
2017-11-09T03:38:05.276Z,100237.86
2017-11-09T03:40:31.506Z,100242.42
2017-11-09T03:42:57.729Z,100235.41
2017-11-09T03:45:24.001Z,100243.87
2017-11-09T03:47:50.230Z,100242.83
2017-11-09T03:50:16.489Z,100242.55
2017-11-09T03:52:42.770Z,100242.44
2017-11-09T03:55:09.119Z,100249.30
2017-11-09T03:57:35.349Z,100245.38
2017-11-09T04:00:01.637Z,100252.80
2017-11-09T04:02:27.886Z,100257.52
2017-11-09T04:04:54.112Z,100256.15
2017-11-09T04:07:20.353Z,100258.20
2017-11-09T04:09:46.591Z,100261.91
2017-11-09T04:12:12.957Z,100259.38
2017-11-09T04:14:39.232Z,100264.70
2017-11-09T04:17:05.466Z,100256.94
2017-11-09T04:19:31.698Z,100260.86
2017-11-09T04:21:57.967Z,100257.69
2017-11-09T04:24:24.196Z,100257.11
2017-11-09T04:26:50.440Z,100249.09
2017-11-09T04:29:16.751Z,100258.59
2017-11-09T04:31:42.982Z,100264.61
2017-11-09T04:34:09.204Z,100265.32
2017-11-09T04:36:35.474Z,100267.58
2017-11-09T04:39:01.714Z,100269.00
2017-11-09T04:41:27.963Z,100263.38
2017-11-09T04:43:54.254Z,100265.66
2017-11-09T04:46:20.503Z,100275.06
2017-11-09T04:48:46.726Z,100276.66
2017-11-09T04:51:13.009Z,100284.72
2017-11-09T04:53:39.230Z,100285.23
2017-11-09T04:56:05.465Z,100283.26
2017-11-09T04:58:31.760Z,100284.11
2017-11-09T05:00:58.004Z,100277.06
2017-11-09T05:03:24.230Z,100286.39
2017-11-09T05:05:50.504Z,100283.51
2017-11-09T05:08:16.732Z,100286.20
2017-11-09T05:10:42.968Z,100287.54
2017-11-09T05:13:09.239Z,100293.87
2017-11-09T05:15:35.488Z,100301.26
2017-11-09T05:18:01.738Z,100302.98
2017-11-09T05:20:28.033Z,100304.63
2017-11-09T05:22:54.262Z,100304.63
2017-11-09T05:25:20.500Z,100315.38
2017-11-09T05:27:46.783Z,100308.53
2017-11-09T05:30:13.001Z,100308.19
2017-11-09T05:32:39.242Z,100312.33
2017-11-09T05:35:05.525Z,100314.36
2017-11-09T05:37:31.771Z,100319.89
2017-11-09T05:39:58.039Z,100318.97
2017-11-09T05:42:24.305Z,100326.58
2017-11-09T05:44:50.551Z,100324.58
2017-11-09T05:47:16.801Z,100329.40
2017-11-09T05:49:43.085Z,100323.09
2017-11-09T05:52:09.321Z,100329.46
2017-11-09T05:54:35.549Z,100332.51
2017-11-09T05:57:01.898Z,100331.98
2017-11-09T05:59:28.127Z,100335.09
2017-11-09T06:01:54.371Z,100343.20
2017-11-09T06:04:20.605Z,100342.63
2017-11-09T06:06:46.840Z,100351.65
2017-11-09T06:09:13.117Z,100350.66
2017-11-09T06:11:39.353Z,100345.61
2017-11-09T06:14:05.708Z,100348.70
2017-11-09T06:16:31.986Z,100348.72
2017-11-09T06:18:58.193Z,100351.73
2017-11-09T06:21:24.466Z,100354.31
2017-11-09T06:23:50.792Z,100357.00
2017-11-09T06:26:17.189Z,100361.41
2017-11-09T06:28:43.416Z,100370.55
2017-11-09T06:31:09.709Z,100365.34
2017-11-09T06:33:35.932Z,100369.95
2017-11-09T06:36:02.182Z,100375.05
2017-11-09T06:38:28.468Z,100372.55
2017-11-09T06:40:54.755Z,100374.56
2017-11-09T06:43:21.151Z,100371.23
2017-11-09T06:45:47.417Z,100374.19
2017-11-09T06:48:13.744Z,100374.16
2017-11-09T06:50:39.987Z,100375.38
2017-11-09T06:53:06.260Z,100378.30
2017-11-09T06:55:32.600Z,100376.58
2017-11-09T06:57:58.840Z,100382.34
2017-11-09T07:00:25.091Z,100379.52
2017-11-09T07:02:51.313Z,100382.89
2017-11-09T07:05:17.557Z,100385.05
2017-11-09T07:07:43.837Z,100386.10
2017-11-09T07:10:10.216Z,100385.17
2017-11-09T07:12:36.463Z,100386.41
2017-11-09T07:15:02.786Z,100383.09
2017-11-09T07:17:29.032Z,100387.34
2017-11-09T07:19:55.279Z,100387.05
2017-11-09T07:22:21.543Z,100387.96
2017-11-09T07:24:47.772Z,100383.52
2017-11-09T07:27:14.006Z,100380.38
2017-11-09T07:29:40.305Z,100386.16
2017-11-09T07:32:06.529Z,100394.05
2017-11-09T07:34:32.767Z,100388.78
2017-11-09T07:36:59.076Z,100392.57
2017-11-09T07:39:25.308Z,100391.48
2017-11-09T07:41:51.535Z,100399.73
2017-11-09T07:44:17.804Z,100390.59
2017-11-09T07:46:44.056Z,100394.12
2017-11-09T07:49:10.306Z,100394.85
2017-11-09T07:51:36.591Z,100391.08
2017-11-09T07:54:02.948Z,100386.80
2017-11-09T07:56:29.184Z,100390.11
2017-11-09T07:58:55.469Z,100394.77
2017-11-09T08:01:21.729Z,100390.95
2017-11-09T08:03:47.976Z,100390.30
2017-11-09T08:06:14.288Z,100393.77
2017-11-09T08:08:40.552Z,100394.48
2017-11-09T08:11:06.798Z,100399.89
2017-11-09T08:13:33.182Z,100391.88
2017-11-09T08:15:59.477Z,100397.09
2017-11-09T08:18:25.736Z,100396.63
2017-11-09T08:20:52.038Z,100401.03
2017-11-09T08:23:18.420Z,100391.83
2017-11-09T08:25:44.654Z,100392.34
2017-11-09T08:28:10.959Z,100392.53
2017-11-09T08:30:37.187Z,100388.94
2017-11-09T08:33:03.455Z,100389.10
2017-11-09T08:35:29.736Z,100391.69
2017-11-09T08:37:55.975Z,100385.83
2017-11-09T08:40:22.219Z,100385.22
2017-11-09T08:42:48.505Z,100386.00
2017-11-09T08:45:14.754Z,100388.06
2017-11-09T08:47:40.993Z,100387.14
2017-11-09T08:50:07.271Z,100390.26
2017-11-09T08:52:33.514Z,100389.97
2017-11-09T08:54:59.753Z,100393.34
2017-11-09T08:57:26.042Z,100395.20
2017-11-09T08:59:52.291Z,100388.97
2017-11-09T09:02:18.531Z,100390.84
2017-11-09T09:04:44.801Z,100400.98
2017-11-09T09:07:11.030Z,100404.38
2017-11-09T09:09:37.303Z,100404.23
2017-11-09T09:12:03.594Z,100398.55
2017-11-09T09:14:29.841Z,100397.92
2017-11-09T09:16:56.078Z,100395.42
2017-11-09T09:19:22.357Z,100392.73
2017-11-09T09:21:48.606Z,100393.50
2017-11-09T09:24:14.836Z,100387.84
2017-11-09T09:26:41.117Z,100390.31
2017-11-09T09:29:07.380Z,100386.11
2017-11-09T09:31:33.612Z,100384.34
2017-11-09T09:33:59.887Z,100385.94
2017-11-09T09:36:26.285Z,100380.50
2017-11-09T09:38:52.534Z,100387.41
2017-11-09T09:41:18.792Z,100383.13
2017-11-09T09:43:45.178Z,100386.23
2017-11-09T09:46:11.409Z,100380.22
2017-11-09T09:48:37.657Z,100362.00
2017-11-09T09:51:03.925Z,100362.28
2017-11-09T09:53:30.292Z,100364.33
2017-11-09T09:55:56.517Z,100365.22
2017-11-09T09:58:22.801Z,100359.55
2017-11-09T10:00:49.053Z,100355.41
2017-11-09T10:03:15.420Z,100350.93
2017-11-09T10:05:41.689Z,100346.32
2017-11-09T10:08:07.921Z,100339.91
2017-11-09T10:10:34.168Z,100337.50
2017-11-09T10:13:00.446Z,100343.91
2017-11-09T10:15:26.684Z,100343.83
2017-11-09T10:17:52.919Z,100338.64
2017-11-09T10:20:19.193Z,100332.87
2017-11-09T10:22:45.552Z,100330.00
2017-11-09T10:25:11.809Z,100336.70
2017-11-09T10:27:38.105Z,100331.14
2017-11-09T10:30:04.337Z,100335.11
2017-11-09T10:32:30.541Z,100333.19
2017-11-09T10:34:56.844Z,100326.25
2017-11-09T10:37:23.070Z,100330.59
2017-11-09T10:39:49.322Z,100331.83
2017-11-09T10:42:15.601Z,100329.16
2017-11-09T10:44:41.847Z,100327.16
2017-11-09T10:47:08.080Z,100325.00
2017-11-09T10:49:34.353Z,100327.35
2017-11-09T10:52:00.601Z,100323.16
2017-11-09T10:54:26.861Z,100325.50
2017-11-09T10:56:53.136Z,100315.16
2017-11-09T10:59:19.372Z,100316.00
2017-11-09T11:01:45.624Z,100315.44
2017-11-09T11:04:11.913Z,100306.21
2017-11-09T11:06:38.151Z,100317.14
2017-11-09T11:09:04.388Z,100317.03
2017-11-09T11:11:30.661Z,100316.61
2017-11-09T11:13:56.921Z,100311.56
2017-11-09T11:16:23.163Z,100317.08
2017-11-09T11:18:49.435Z,100311.70
2017-11-09T11:21:15.681Z,100311.08
2017-11-09T11:23:41.934Z,100313.14
2017-11-09T11:26:08.228Z,100313.20
2017-11-09T11:28:34.468Z,100310.03
2017-11-09T11:31:00.712Z,100311.91
2017-11-09T11:33:26.996Z,100305.12
2017-11-09T11:35:53.228Z,100308.01
2017-11-09T11:38:19.561Z,100311.99
2017-11-09T11:40:45.855Z,100313.28
2017-11-09T11:43:12.096Z,100309.95
2017-11-09T11:45:38.329Z,100306.86
2017-11-09T11:48:04.598Z,100316.72
2017-11-09T11:50:30.842Z,100316.62
2017-11-09T11:52:57.072Z,100316.02
2017-11-09T11:55:23.348Z,100323.35
2017-11-09T11:57:49.595Z,100321.87
2017-11-09T12:00:15.841Z,100322.25
2017-11-09T12:02:42.125Z,100322.70
2017-11-09T12:05:08.343Z,100320.36
2017-11-09T12:07:34.582Z,100320.38
2017-11-09T12:10:00.871Z,100318.56
2017-11-09T12:12:27.211Z,100321.83
2017-11-09T12:14:53.464Z,100319.15
2017-11-09T12:17:19.741Z,100322.91
2017-11-09T12:19:45.978Z,100318.75
2017-11-09T12:22:12.225Z,100324.36
2017-11-09T12:24:38.515Z,100325.59
2017-11-09T12:27:04.751Z,100323.92
2017-11-09T12:29:30.988Z,100325.42
2017-11-09T12:31:57.279Z,100322.20
2017-11-09T12:34:23.533Z,100318.87
2017-11-09T12:36:49.856Z,100327.16
2017-11-09T12:39:16.136Z,100330.10
2017-11-09T12:41:42.386Z,100335.06
2017-11-09T12:44:08.646Z,100326.81
2017-11-09T12:46:34.927Z,100325.30
2017-11-09T12:49:01.162Z,100323.80
2017-11-09T12:51:27.398Z,100324.97
2017-11-09T12:53:53.667Z,100319.48
2017-11-09T12:56:19.902Z,100318.80
2017-11-09T12:58:46.129Z,100320.73
2017-11-09T13:01:12.387Z,100322.91
2017-11-09T13:03:38.604Z,100321.30
2017-11-09T13:06:04.819Z,100325.63
2017-11-09T13:08:31.092Z,100327.20
2017-11-09T13:10:57.475Z,100330.88
2017-11-09T13:13:23.713Z,100326.23
2017-11-09T13:15:49.994Z,100331.31
2017-11-09T13:18:16.360Z,100336.27
2017-11-09T13:20:42.599Z,100335.64
2017-11-09T13:23:08.876Z,100334.05
2017-11-09T13:25:35.122Z,100333.73
2017-11-09T13:28:01.362Z,100336.41
2017-11-09T13:30:27.661Z,100334.66
2017-11-09T13:32:53.894Z,100335.91
2017-11-09T13:35:20.152Z,100336.33
2017-11-09T13:37:46.414Z,100337.44
2017-11-09T13:40:12.656Z,100338.02
2017-11-09T13:42:38.893Z,100341.66
2017-11-09T13:45:05.200Z,100339.23
2017-11-09T13:47:31.440Z,100344.96
2017-11-09T13:49:57.688Z,100344.50
2017-11-09T13:52:23.977Z,100346.95
2017-11-09T13:54:50.214Z,100347.38
2017-11-09T13:57:16.442Z,100349.08
2017-11-09T13:59:42.707Z,100359.09
2017-11-09T14:02:08.946Z,100360.03
2017-11-09T14:04:35.176Z,100357.88
2017-11-09T14:07:01.443Z,100362.53
2017-11-09T14:09:27.684Z,100368.97
2017-11-09T14:11:53.911Z,100367.75
2017-11-09T14:14:20.224Z,100371.39
2017-11-09T14:16:46.561Z,100377.05
2017-11-09T14:19:12.793Z,100372.53
2017-11-09T14:21:39.074Z,100374.42
2017-11-09T14:24:05.290Z,100385.23
2017-11-09T14:26:31.535Z,100389.76
2017-11-09T14:28:57.816Z,100393.58
2017-11-09T14:31:24.297Z,100384.78
2017-11-09T14:33:50.738Z,100387.66
2017-11-09T14:36:17.415Z,100390.36
2017-11-09T14:38:44.048Z,100394.05
2017-11-09T14:41:10.440Z,100394.23
2017-11-09T14:43:36.881Z,100392.05
2017-11-09T14:46:03.302Z,100391.25
2017-11-09T14:48:29.589Z,100386.03
2017-11-09T14:50:56.016Z,100384.55
2017-11-09T14:53:22.660Z,100388.48
2017-11-09T14:55:49.267Z,100390.70
2017-11-09T14:58:15.929Z,100391.75
2017-11-09T15:00:42.551Z,100384.97
2017-11-09T15:03:09.003Z,100382.32
2017-11-09T15:05:35.510Z,100393.88
2017-11-09T15:08:01.927Z,100397.05
2017-11-09T15:10:28.345Z,100397.64
2017-11-09T15:12:54.766Z,100402.02
2017-11-09T15:15:21.352Z,100396.77
2017-11-09T15:17:47.608Z,100399.28
2017-11-09T15:20:14.241Z,100402.90
2017-11-09T15:22:40.857Z,100404.77
2017-11-09T15:25:07.106Z,100406.55
2017-11-09T15:27:33.748Z,100407.77
2017-11-09T15:30:00.255Z,100417.02
2017-11-09T15:32:26.670Z,100418.88
2017-11-09T15:34:53.114Z,100421.58
2017-11-09T15:37:19.479Z,100423.94
2017-11-09T15:39:46.097Z,100425.39
2017-11-09T15:42:12.753Z,100430.59
2017-11-09T15:44:39.192Z,100431.88
2017-11-09T15:47:05.637Z,100430.52
2017-11-09T15:49:32.216Z,100435.45
2017-11-09T15:51:58.655Z,100436.01
2017-11-09T15:54:25.077Z,100433.63
2017-11-09T15:56:51.540Z,100438.81
2017-11-09T15:59:17.959Z,100437.59
2017-11-09T16:01:44.229Z,100438.79
2017-11-09T16:04:10.500Z,100446.30
2017-11-09T16:06:37.086Z,100440.69
2017-11-09T16:09:03.529Z,100442.86
2017-11-09T16:11:30.142Z,100446.64
2017-11-09T16:13:56.422Z,100450.95
2017-11-09T16:16:23.024Z,100456.45
2017-11-09T16:18:49.519Z,100457.45
2017-11-09T16:21:16.098Z,100459.84
2017-11-09T16:23:42.728Z,100467.62
2017-11-09T16:26:09.373Z,100465.12
2017-11-09T16:28:35.860Z,100467.10
2017-11-09T16:31:02.301Z,100468.03
2017-11-09T16:33:28.843Z,100480.67
2017-11-09T16:35:55.287Z,100480.55
2017-11-09T16:38:21.706Z,100480.29
2017-11-09T16:40:48.096Z,100464.29
2017-11-09T16:43:14.398Z,100477.37
2017-11-09T16:45:40.808Z,100482.98
2017-11-09T16:48:07.482Z,100479.09
2017-11-09T16:50:34.117Z,100479.58
2017-11-09T16:53:00.633Z,100480.41
2017-11-09T16:55:27.145Z,100484.17
2017-11-09T16:57:53.422Z,100481.47
2017-11-09T17:00:19.930Z,100482.25
2017-11-09T17:02:46.349Z,100489.69
2017-11-09T17:05:12.769Z,100494.84
2017-11-09T17:07:39.355Z,100490.37
2017-11-09T17:10:05.873Z,100491.22
2017-11-09T17:12:32.291Z,100486.36
2017-11-09T17:14:58.808Z,100488.42
2017-11-09T17:17:25.088Z,100489.48
2017-11-09T17:19:51.593Z,100489.58
2017-11-09T17:22:17.956Z,100486.39
2017-11-09T17:24:44.351Z,100484.33
2017-11-09T17:27:10.823Z,100482.44
2017-11-09T17:29:37.309Z,100490.06
2017-11-09T17:32:03.752Z,100483.56
2017-11-09T17:34:30.194Z,100479.72
2017-11-09T17:36:56.611Z,100478.48
2017-11-09T17:39:23.053Z,100480.05
2017-11-09T17:41:49.470Z,100481.61
2017-11-09T17:44:15.912Z,100479.88
2017-11-09T17:46:42.450Z,100479.08
2017-11-09T17:49:08.795Z,100476.03
2017-11-09T17:51:35.214Z,100476.45
2017-11-09T17:54:01.620Z,100479.14
2017-11-09T17:56:28.227Z,100479.47
2017-11-09T17:58:54.811Z,100476.97
2017-11-09T18:01:21.479Z,100472.00
2017-11-09T18:03:47.921Z,100476.37
2017-11-09T18:06:14.365Z,100474.91
2017-11-09T18:08:40.854Z,100478.98
2017-11-09T18:11:07.309Z,100479.20
2017-11-09T18:13:33.684Z,100484.47
2017-11-09T18:16:00.310Z,100484.23
2017-11-09T18:18:26.800Z,100481.88
2017-11-09T18:20:53.178Z,100480.13
2017-11-09T18:23:19.817Z,100480.31
2017-11-09T18:25:46.529Z,100482.52
2017-11-09T18:28:12.942Z,100480.15
2017-11-09T18:30:39.487Z,100479.21
2017-11-09T18:33:05.952Z,100476.19
2017-11-09T18:35:32.566Z,100470.84
2017-11-09T18:37:59.217Z,100468.14
2017-11-09T18:40:25.463Z,100472.59
2017-11-09T18:42:52.093Z,100473.75
2017-11-09T18:45:18.606Z,100480.79
2017-11-09T18:47:45.128Z,100481.33
2017-11-09T18:50:11.402Z,100477.44
2017-11-09T18:52:38.039Z,100472.91
2017-11-09T18:55:04.268Z,100479.95
2017-11-09T18:57:30.769Z,100479.76
2017-11-09T18:59:57.187Z,100481.41
2017-11-09T19:02:23.467Z,100481.89
2017-11-09T19:04:49.915Z,100477.86
2017-11-09T19:07:16.511Z,100481.14
2017-11-09T19:09:42.929Z,100478.00
2017-11-09T19:12:09.270Z,100477.19
2017-11-09T19:14:35.668Z,100474.64
2017-11-09T19:17:02.273Z,100475.87
2017-11-09T19:19:28.797Z,100480.07
2017-11-09T19:21:55.315Z,100480.53
2017-11-09T19:24:21.753Z,100479.06
2017-11-09T19:26:48.175Z,100485.63
2017-11-09T19:29:14.852Z,100481.81
2017-11-09T19:31:41.487Z,100480.38
2017-11-09T19:34:07.713Z,100477.00
2017-11-09T19:36:34.151Z,100476.69
2017-11-09T19:39:00.783Z,100479.40
2017-11-09T19:41:27.418Z,100477.47
2017-11-09T19:43:53.858Z,100473.23
2017-11-09T19:46:20.497Z,100477.57
2017-11-09T19:48:47.021Z,100474.92
2017-11-09T19:51:13.414Z,100477.70
2017-11-09T19:53:40.001Z,100470.69
2017-11-09T19:56:06.404Z,100468.83
2017-11-09T19:58:32.849Z,100469.03
2017-11-09T20:00:59.503Z,100466.44
2017-11-09T20:03:26.151Z,100465.89
2017-11-09T20:05:52.583Z,100469.34
2017-11-09T20:08:18.998Z,100472.20
2017-11-09T20:10:45.454Z,100472.98
2017-11-09T20:13:12.063Z,100461.92
2017-11-09T20:15:38.683Z,100463.47
2017-11-09T20:18:05.103Z,100458.59
2017-11-09T20:20:31.545Z,100461.06
2017-11-09T20:22:57.964Z,100460.37
2017-11-09T20:25:24.331Z,100462.44
2017-11-09T20:27:50.683Z,100460.17
2017-11-09T20:30:17.328Z,100457.36
2017-11-09T20:32:43.743Z,100461.51
2017-11-09T20:35:09.974Z,100461.78
2017-11-09T20:37:36.445Z,100457.48
2017-11-09T20:40:03.019Z,100454.30
2017-11-09T20:42:29.694Z,100445.84
2017-11-09T20:44:56.132Z,100448.07
2017-11-09T20:47:22.557Z,100452.95
2017-11-09T20:49:49.178Z,100452.53
2017-11-09T20:52:15.597Z,100456.69
2017-11-09T20:54:41.847Z,100456.27
2017-11-09T20:57:08.187Z,100462.36
2017-11-09T20:59:34.616Z,100459.67
2017-11-09T21:02:00.850Z,100460.58
2017-11-09T21:04:27.115Z,100465.06
2017-11-09T21:06:53.344Z,100459.88
2017-11-09T21:09:19.573Z,100462.98
2017-11-09T21:11:45.843Z,100459.95
2017-11-09T21:14:12.090Z,100458.95
2017-11-09T21:16:38.433Z,100456.86
2017-11-09T21:19:04.696Z,100457.48
2017-11-09T21:21:30.921Z,100463.80
2017-11-09T21:23:57.146Z,100468.03
2017-11-09T21:26:23.445Z,100464.31
2017-11-09T21:28:52.521Z,100466.58
2017-11-09T21:31:18.782Z,100465.24
2017-11-09T21:33:45.059Z,100470.61
2017-11-09T21:36:11.277Z,100466.07
2017-11-09T21:38:37.659Z,100462.95
2017-11-09T21:41:04.159Z,100464.05
2017-11-09T21:43:30.389Z,100471.50
2017-11-09T21:45:56.946Z,100467.82
2017-11-09T21:48:23.605Z,100469.30
2017-11-09T21:50:50.231Z,100473.31
2017-11-09T21:53:16.727Z,100465.48
2017-11-09T21:55:43.110Z,100465.46
2017-11-09T21:58:09.486Z,100452.58
2017-11-09T22:00:35.935Z,100462.64
2017-11-09T22:03:02.221Z,100469.10
2017-11-09T22:05:28.457Z,100465.22
2017-11-09T22:07:54.666Z,100464.67
2017-11-09T22:10:20.939Z,100458.92
2017-11-09T22:12:47.303Z,100462.16
2017-11-09T22:15:13.551Z,100461.77
2017-11-09T22:17:39.792Z,100439.47
2017-11-09T22:20:06.022Z,100465.61
2017-11-09T22:22:32.239Z,100463.05
2017-11-09T22:24:58.517Z,100466.87
2017-11-09T22:27:24.764Z,100472.75
2017-11-09T22:29:50.982Z,100470.69
2017-11-09T22:32:17.247Z,100472.44
2017-11-09T22:34:43.472Z,100472.31
2017-11-09T22:37:09.715Z,100474.01
2017-11-09T22:39:35.984Z,100466.34
2017-11-09T22:42:02.214Z,100474.98
2017-11-09T22:44:28.426Z,100468.21
2017-11-09T22:46:54.707Z,100469.41
2017-11-09T22:49:20.918Z,100475.81
2017-11-09T22:51:47.162Z,100477.45
2017-11-09T22:54:13.441Z,100476.78
2017-11-09T22:56:39.667Z,100457.78
2017-11-09T22:59:05.885Z,100479.73
2017-11-09T23:01:32.143Z,100484.60
2017-11-09T23:03:58.384Z,100478.22
2017-11-09T23:06:24.768Z,100474.59
2017-11-09T23:08:51.051Z,100480.62
2017-11-09T23:11:17.409Z,100475.25
2017-11-09T23:13:43.635Z,100480.75
2017-11-09T23:16:10.078Z,100452.88
2017-11-09T23:18:36.303Z,100473.68
2017-11-09T23:21:02.544Z,100473.10
2017-11-09T23:23:28.847Z,100474.44
2017-11-09T23:25:55.074Z,100477.09
2017-11-09T23:28:21.421Z,100478.13
2017-11-09T23:30:47.687Z,100477.05
2017-11-09T23:33:13.971Z,100479.69
2017-11-09T23:35:40.203Z,100469.15
2017-11-09T23:38:06.461Z,100473.21
2017-11-09T23:40:32.684Z,100472.09
2017-11-09T23:42:59.014Z,100474.92
2017-11-09T23:45:25.288Z,100466.44
2017-11-09T23:47:51.502Z,100464.84
2017-11-09T23:50:17.724Z,100467.94
2017-11-09T23:52:43.979Z,100469.44
2017-11-09T23:55:10.237Z,100469.48
2017-11-09T23:57:36.451Z,100466.55
